createdAt,value
2022-10-19T00:00:33.187Z,15.02
2022-10-19T00:02:59.723Z,15.18
2022-10-19T00:05:26.490Z,15.18
2022-10-19T00:07:53.701Z,15.27
2022-10-19T00:10:20.407Z,15.16
2022-10-19T00:15:13.742Z,15.33
2022-10-19T00:17:40.253Z,15.13
2022-10-19T00:20:06.988Z,15.13
2022-10-19T00:22:33.661Z,15.04
2022-10-19T00:25:00.274Z,14.98
2022-10-19T00:27:26.759Z,14.94
2022-10-19T00:29:53.234Z,14.96
2022-10-19T00:32:19.710Z,15.02
2022-10-19T00:34:46.162Z,15.09
2022-10-19T00:37:12.629Z,15.04
2022-10-19T00:39:39.307Z,14.96
2022-10-19T00:42:05.822Z,14.91
2022-10-19T00:44:32.169Z,14.86
2022-10-19T00:47:01.872Z,14.82
2022-10-19T00:49:32.195Z,14.62
2022-10-19T00:52:04.117Z,14.59
2022-10-19T00:54:32.718Z,14.65
2022-10-19T00:56:59.922Z,14.54
2022-10-19T00:59:27.242Z,14.59
2022-10-19T01:01:54.469Z,14.70
2022-10-19T01:04:22.203Z,14.66
2022-10-19T01:06:48.756Z,14.59
2022-10-19T01:09:15.337Z,14.65
2022-10-19T01:11:58.220Z,14.71
2022-10-19T01:14:43.582Z,14.77
2022-10-19T01:17:43.914Z,14.63
2022-10-19T01:20:19.368Z,14.68
2022-10-19T01:23:16.595Z,14.65
2022-10-19T01:26:01.212Z,14.71
2022-10-19T01:28:54.568Z,14.70
2022-10-19T01:31:30.424Z,14.51
2022-10-19T01:34:10.141Z,14.43
2022-10-19T01:36:57.865Z,14.24
2022-10-19T01:39:54.986Z,14.07
2022-10-19T01:42:46.705Z,13.95
2022-10-19T01:45:19.717Z,13.93
2022-10-19T01:47:49.778Z,14.06
2022-10-19T01:50:17.339Z,14.15
2022-10-19T01:52:43.875Z,14.09
2022-10-19T01:55:13.187Z,13.92
2022-10-19T01:57:43.042Z,13.80
2022-10-19T02:00:11.133Z,13.81
2022-10-19T02:02:39.374Z,13.79
2022-10-19T02:05:07.778Z,13.93
2022-10-19T02:07:34.992Z,13.99
2022-10-19T02:10:01.623Z,13.99
2022-10-19T02:12:28.965Z,13.90
2022-10-19T02:14:58.576Z,13.88
2022-10-19T02:17:28.794Z,13.94
2022-10-19T02:19:59.134Z,13.67
2022-10-19T02:22:25.674Z,13.47
2022-10-19T02:24:52.139Z,13.59
2022-10-19T02:27:19.277Z,13.74
2022-10-19T02:29:46.099Z,13.90
2022-10-19T02:32:12.716Z,14.00
2022-10-19T02:34:39.575Z,14.10
2022-10-19T02:37:06.425Z,14.07
2022-10-19T02:39:33.275Z,13.90
2022-10-19T02:42:08.823Z,13.90
2022-10-19T02:44:48.203Z,14.02
2022-10-19T02:47:21.078Z,14.03
2022-10-19T02:49:47.818Z,13.92
2022-10-19T02:52:14.738Z,13.66
2022-10-19T02:54:43.696Z,13.57
2022-10-19T02:57:19.325Z,13.44
2022-10-19T02:59:46.122Z,13.47
2022-10-19T03:02:13.526Z,13.57
2022-10-19T03:04:40.275Z,13.57
2022-10-19T03:07:06.720Z,13.41
2022-10-19T03:09:33.147Z,13.39
2022-10-19T03:11:59.573Z,13.43
2022-10-19T03:14:26.094Z,13.54
2022-10-19T03:16:52.523Z,13.72
2022-10-19T03:19:19.088Z,13.81
2022-10-19T03:21:45.948Z,13.82
2022-10-19T03:24:12.718Z,13.80
2022-10-19T03:26:39.221Z,13.94
2022-10-19T03:29:05.731Z,13.89
2022-10-19T03:31:32.366Z,13.75
2022-10-19T03:33:58.885Z,13.77
2022-10-19T03:36:26.420Z,13.80
2022-10-19T03:38:57.839Z,13.77
2022-10-19T03:41:26.817Z,13.97
2022-10-19T03:43:53.385Z,14.07
2022-10-19T03:46:20.999Z,14.19
2022-10-19T03:48:48.137Z,14.16
2022-10-19T03:51:20.050Z,14.21
2022-10-19T03:53:46.896Z,14.15
2022-10-19T03:56:18.809Z,13.93
2022-10-19T03:58:47.072Z,13.94
2022-10-19T04:01:21.803Z,13.92
2022-10-19T04:04:01.118Z,13.72
2022-10-19T04:06:31.624Z,13.59
2022-10-19T04:08:58.736Z,13.52
2022-10-19T04:11:27.607Z,13.57
2022-10-19T04:14:26.736Z,13.66
2022-10-19T04:17:03.598Z,13.74
2022-10-19T04:19:30.564Z,13.78
2022-10-19T04:21:57.518Z,13.72
2022-10-19T04:24:23.968Z,13.60
2022-10-19T04:26:52.839Z,13.43
2022-10-19T04:29:22.835Z,13.28
2022-10-19T04:31:53.529Z,13.38
2022-10-19T04:34:19.990Z,13.54
2022-10-19T04:36:46.454Z,13.62
2022-10-19T04:39:24.669Z,13.49
2022-10-19T04:41:51.136Z,13.49
2022-10-19T04:44:17.700Z,13.59
2022-10-19T04:46:44.185Z,13.36
2022-10-19T04:49:10.697Z,13.22
2022-10-19T04:51:37.150Z,13.18
2022-10-19T04:54:07.043Z,13.31
2022-10-19T04:56:34.176Z,13.35
2022-10-19T04:59:03.583Z,13.44
2022-10-19T05:01:31.627Z,13.56
2022-10-19T05:04:00.732Z,13.69
2022-10-19T05:06:27.764Z,13.49
2022-10-19T05:08:55.036Z,13.60
2022-10-19T05:11:22.332Z,13.51
2022-10-19T05:13:49.171Z,13.60
2022-10-19T05:16:18.125Z,13.57
2022-10-19T05:18:49.147Z,13.35
2022-10-19T05:21:16.527Z,13.49
2022-10-19T05:23:43.344Z,13.48
2022-10-19T05:26:15.635Z,13.48
2022-10-19T05:28:42.627Z,13.35
2022-10-19T05:31:11.724Z,13.35
2022-10-19T05:33:39.441Z,13.37
2022-10-19T05:36:13.486Z,13.47
2022-10-19T05:38:40.069Z,13.29
2022-10-19T05:41:06.855Z,13.20
2022-10-19T05:43:33.486Z,13.21
2022-10-19T05:46:08.612Z,13.10
2022-10-19T05:48:37.062Z,13.13
2022-10-19T05:51:05.451Z,13.20
2022-10-19T05:53:33.685Z,13.19
2022-10-19T05:56:00.232Z,13.19
2022-10-19T05:58:26.930Z,13.10
2022-10-19T06:00:58.358Z,13.10
2022-10-19T06:03:25.588Z,13.20
2022-10-19T06:05:53.009Z,13.27
2022-10-19T06:08:20.701Z,13.31
2022-10-19T06:10:47.904Z,13.29
2022-10-19T06:13:15.720Z,13.35
2022-10-19T06:15:42.289Z,13.43
2022-10-19T06:18:10.576Z,13.44
2022-10-19T06:20:38.890Z,13.56
2022-10-19T06:23:06.038Z,13.53
2022-10-19T06:25:33.096Z,13.47
2022-10-19T06:28:00.440Z,13.47
2022-10-19T06:30:27.205Z,13.58
2022-10-19T06:32:54.011Z,13.46
2022-10-19T06:35:20.807Z,13.39
2022-10-19T06:37:51.298Z,13.37
2022-10-19T06:40:18.019Z,13.45
2022-10-19T06:42:44.557Z,13.59
2022-10-19T06:45:11.138Z,13.73
2022-10-19T06:47:38.104Z,13.75
2022-10-19T06:50:06.253Z,13.79
2022-10-19T06:52:33.840Z,13.94
2022-10-19T06:55:01.295Z,13.94
2022-10-19T06:57:28.433Z,13.89
2022-10-19T06:59:55.187Z,14.05
2022-10-19T07:02:21.778Z,13.97
2022-10-19T07:04:48.311Z,14.06
2022-10-19T07:07:14.930Z,14.16
2022-10-19T07:09:41.549Z,14.26
2022-10-19T07:12:08.432Z,14.25
2022-10-19T07:14:35.388Z,14.31
2022-10-19T07:17:01.878Z,14.48
2022-10-19T07:19:28.408Z,14.52
2022-10-19T07:21:54.851Z,14.51
2022-10-19T07:24:21.656Z,14.64
2022-10-19T07:26:48.282Z,14.57
2022-10-19T07:29:14.800Z,14.71
2022-10-19T07:31:41.980Z,14.85
2022-10-19T07:34:12.049Z,15.07
2022-10-19T07:36:38.644Z,15.10
2022-10-19T07:39:06.714Z,15.29
2022-10-19T07:41:33.857Z,15.41
2022-10-19T07:44:01.280Z,15.61
2022-10-19T07:46:29.146Z,15.75
2022-10-19T07:48:55.832Z,15.99
2022-10-19T07:51:23.176Z,16.10
2022-10-19T07:53:50.433Z,16.23
2022-10-19T07:56:22.497Z,16.34
2022-10-19T07:58:53.560Z,16.43
2022-10-19T08:01:24.027Z,16.63
2022-10-19T08:06:39.242Z,16.68
2022-10-19T08:09:06.810Z,16.79
2022-10-19T08:11:35.496Z,16.85
2022-10-19T08:14:02.476Z,16.98
2022-10-19T08:16:30.424Z,16.92
2022-10-19T08:19:00.458Z,16.72
2022-10-19T08:21:27.104Z,16.70
2022-10-19T08:23:53.819Z,16.58
2022-10-19T08:26:20.875Z,16.43
2022-10-19T08:28:47.622Z,16.60
2022-10-19T08:31:20.066Z,16.55
2022-10-19T08:33:46.970Z,16.51
2022-10-19T08:36:13.704Z,16.34
2022-10-19T08:38:40.884Z,16.44
2022-10-19T08:41:46.196Z,16.80
2022-10-19T08:44:15.413Z,16.87
2022-10-19T08:47:08.288Z,16.92
2022-10-19T08:49:35.629Z,17.11
2022-10-19T08:52:08.026Z,17.17
2022-10-19T08:54:49.283Z,17.12
2022-10-19T08:57:28.364Z,17.07
2022-10-19T09:00:17.308Z,17.22
2022-10-19T09:03:03.417Z,17.12
2022-10-19T09:05:45.437Z,17.24
2022-10-19T09:08:17.473Z,17.11
2022-10-19T09:10:46.999Z,17.07
2022-10-19T09:13:23.252Z,17.23
2022-10-19T09:15:51.513Z,17.18
2022-10-19T09:18:29.749Z,17.22
2022-10-19T09:21:17.145Z,17.18
2022-10-19T09:23:47.222Z,17.27
2022-10-19T09:26:19.016Z,17.24
2022-10-19T09:28:54.858Z,17.22
2022-10-19T09:31:40.693Z,17.40
2022-10-19T09:34:22.071Z,17.53
2022-10-19T09:36:56.515Z,17.48
2022-10-19T09:39:27.036Z,17.30
2022-10-19T09:41:58.967Z,17.15
2022-10-19T09:44:27.058Z,17.30
2022-10-19T09:47:10.213Z,17.38
2022-10-19T09:49:45.050Z,17.48
2022-10-19T09:52:32.987Z,17.71
2022-10-19T09:55:06.469Z,17.89
2022-10-19T09:57:34.053Z,17.70
2022-10-19T10:00:00.820Z,17.95
2022-10-19T10:02:32.203Z,18.23
2022-10-19T10:05:14.673Z,18.09
2022-10-19T10:07:41.208Z,18.42
2022-10-19T10:10:19.927Z,18.56
2022-10-19T10:12:47.187Z,18.68
2022-10-19T10:15:19.932Z,18.68
2022-10-19T10:17:47.839Z,18.55
2022-10-19T10:20:25.457Z,18.62
2022-10-19T10:22:58.027Z,18.68
2022-10-19T10:25:27.433Z,18.41
2022-10-19T10:28:03.797Z,18.43
2022-10-19T10:30:35.439Z,18.42
2022-10-19T10:33:09.440Z,18.53
2022-10-19T10:35:47.223Z,18.62
2022-10-19T10:38:18.420Z,18.72
2022-10-19T10:41:00.672Z,18.88
2022-10-19T10:43:31.585Z,18.80
2022-10-19T10:46:07.484Z,18.75
2022-10-19T10:48:44.576Z,18.71
2022-10-19T10:51:43.444Z,18.68
2022-10-19T10:54:23.098Z,18.56
2022-10-19T10:57:07.933Z,18.46
2022-10-19T11:00:01.751Z,18.51
2022-10-19T11:02:36.838Z,18.34
2022-10-19T11:05:12.002Z,18.55
2022-10-19T11:07:43.924Z,18.26
2022-10-19T11:10:20.441Z,18.27
2022-10-19T11:12:52.062Z,18.20
2022-10-19T11:15:59.580Z,18.14
2022-10-19T11:18:30.067Z,18.31
2022-10-19T11:21:18.515Z,18.44
2022-10-19T11:23:47.729Z,18.62
2022-10-19T11:26:26.474Z,18.72
2022-10-19T11:29:02.681Z,18.67
2022-10-19T11:31:43.902Z,18.57
2022-10-19T11:34:29.248Z,18.42
2022-10-19T11:37:26.653Z,18.19
2022-10-19T11:40:08.864Z,18.29
2022-10-19T11:45:25.650Z,18.45
2022-10-19T11:48:15.024Z,18.57
2022-10-19T11:51:04.136Z,18.61
2022-10-19T11:54:21.433Z,18.56
2022-10-19T11:57:09.382Z,18.54
2022-10-19T11:59:40.783Z,18.71
2022-10-19T12:02:26.110Z,18.94
2022-10-19T12:05:00.421Z,18.77
2022-10-19T12:07:48.611Z,18.89
2022-10-19T12:10:32.525Z,18.86
2022-10-19T12:13:02.364Z,18.79
2022-10-19T12:15:28.708Z,18.76
2022-10-19T12:17:59.558Z,19.00
2022-10-19T12:20:31.255Z,19.28
2022-10-19T12:22:58.905Z,19.30
2022-10-19T12:25:26.446Z,19.34
2022-10-19T12:27:53.444Z,19.44
2022-10-19T12:30:22.168Z,19.53
2022-10-19T12:33:15.457Z,19.38
2022-10-19T12:36:32.758Z,19.43
2022-10-19T12:39:01.624Z,19.49
2022-10-19T12:42:05.416Z,19.42
2022-10-19T12:44:45.195Z,19.48
2022-10-19T12:47:12.417Z,19.56
2022-10-19T12:49:46.261Z,19.52
2022-10-19T12:52:14.420Z,19.25
2022-10-19T12:54:42.635Z,19.23
2022-10-19T12:57:29.059Z,19.41
2022-10-19T13:00:06.308Z,19.24
2022-10-19T13:02:35.485Z,19.43
2022-10-19T13:05:02.549Z,19.51
2022-10-19T13:07:32.809Z,19.52
2022-10-19T13:10:05.777Z,19.63
2022-10-19T13:12:44.002Z,19.35
2022-10-19T13:15:33.494Z,19.48
2022-10-19T13:18:01.370Z,19.62
2022-10-19T13:20:27.766Z,19.57
2022-10-19T13:23:00.123Z,19.72
2022-10-19T13:25:27.329Z,19.56
2022-10-19T13:27:54.836Z,19.68
2022-10-19T13:30:36.455Z,19.69
2022-10-19T13:33:28.004Z,19.83
2022-10-19T13:36:00.582Z,19.66
2022-10-19T13:38:32.792Z,19.79
2022-10-19T13:41:12.096Z,19.72
2022-10-19T13:43:41.638Z,19.61
2022-10-19T13:46:12.480Z,19.35
2022-10-19T13:49:16.658Z,19.44
2022-10-19T13:52:13.910Z,19.63
2022-10-19T13:54:55.350Z,19.95
2022-10-19T13:57:44.596Z,19.96
2022-10-19T14:00:15.647Z,20.21
2022-10-19T14:02:50.966Z,20.50
2022-10-19T14:05:39.091Z,20.77
2022-10-19T14:08:17.529Z,20.61
2022-10-19T14:11:00.729Z,20.73
2022-10-19T14:13:28.485Z,20.37
2022-10-19T14:15:57.614Z,20.61
2022-10-19T14:18:30.982Z,20.74
2022-10-19T14:20:58.397Z,20.87
2022-10-19T14:23:30.084Z,20.76
2022-10-19T14:26:20.514Z,20.49
2022-10-19T14:28:51.884Z,20.37
2022-10-19T14:31:22.167Z,20.22
2022-10-19T14:33:51.538Z,20.13
2022-10-19T14:36:21.593Z,20.05
2022-10-19T14:38:54.954Z,20.16
2022-10-19T14:41:27.357Z,19.95
2022-10-19T14:43:55.256Z,20.04
2022-10-19T14:46:28.850Z,19.95
2022-10-19T14:49:00.092Z,20.05
2022-10-19T14:51:45.593Z,19.98
2022-10-19T14:54:28.721Z,19.95
2022-10-19T14:56:57.088Z,19.78
2022-10-19T14:59:32.328Z,19.72
2022-10-19T15:02:01.058Z,19.52
2022-10-19T15:04:37.729Z,19.45
2022-10-19T15:07:15.325Z,19.37
2022-10-19T15:09:48.663Z,19.05
2022-10-19T15:12:18.422Z,18.73
2022-10-19T15:14:45.999Z,18.39
2022-10-19T15:17:21.654Z,18.46
2022-10-19T15:19:48.428Z,18.54
2022-10-19T15:22:21.382Z,18.60
2022-10-19T15:25:00.696Z,18.53
2022-10-19T15:27:41.226Z,18.55
2022-10-19T15:30:22.858Z,18.33
2022-10-19T15:32:52.449Z,18.09
2022-10-19T15:35:34.965Z,18.13
2022-10-19T15:38:07.537Z,18.22
2022-10-19T15:40:38.576Z,18.24
2022-10-19T15:43:50.737Z,18.30
2022-10-19T15:46:27.311Z,18.07
2022-10-19T15:49:24.134Z,17.95
2022-10-19T15:51:51.027Z,17.93
2022-10-19T15:54:18.551Z,17.91
2022-10-19T15:56:47.159Z,18.02
2022-10-19T15:59:16.434Z,18.13
2022-10-19T16:01:44.096Z,18.22
2022-10-19T16:04:10.876Z,18.37
2022-10-19T16:06:40.257Z,18.45
2022-10-19T16:09:08.703Z,18.23
2022-10-19T16:11:35.340Z,18.08
2022-10-19T16:14:02.513Z,18.18
2022-10-19T16:16:31.803Z,18.18
2022-10-19T16:18:59.097Z,17.95
2022-10-19T16:21:33.344Z,17.94
2022-10-19T16:24:00.247Z,17.64
2022-10-19T16:26:27.023Z,17.30
2022-10-19T16:28:55.397Z,17.25
2022-10-19T16:31:23.041Z,17.28
2022-10-19T16:33:49.603Z,17.17
2022-10-19T16:36:16.356Z,16.93
2022-10-19T16:38:42.865Z,16.71
2022-10-19T16:41:10.644Z,16.59
2022-10-19T16:43:37.989Z,16.54
2022-10-19T16:46:06.010Z,16.63
2022-10-19T16:48:33.230Z,16.66
2022-10-19T16:51:24.344Z,16.69
2022-10-19T16:53:53.730Z,16.84
2022-10-19T16:56:20.594Z,16.63
2022-10-19T16:58:47.234Z,16.57
2022-10-19T17:01:16.584Z,16.38
2022-10-19T17:03:44.127Z,16.38
2022-10-19T17:06:10.750Z,16.32
2022-10-19T17:09:14.317Z,16.18
2022-10-19T17:11:28.035Z,16.29
2022-10-19T17:13:57.521Z,16.29
2022-10-19T17:16:25.954Z,16.34
2022-10-19T17:18:55.423Z,16.18
2022-10-19T17:21:27.130Z,16.03
2022-10-19T17:23:55.856Z,15.99
2022-10-19T17:26:30.981Z,15.82
2022-10-19T17:28:58.474Z,15.69
2022-10-19T17:31:25.537Z,15.83
2022-10-19T17:33:52.586Z,15.98
2022-10-19T17:36:24.396Z,15.79
2022-10-19T17:38:53.454Z,15.88
2022-10-19T17:41:20.124Z,15.97
2022-10-19T17:43:48.106Z,15.92
2022-10-19T17:46:16.647Z,15.97
2022-10-19T17:48:44.210Z,15.99
2022-10-19T17:51:19.442Z,15.93
2022-10-19T17:53:49.762Z,16.04
2022-10-19T17:56:18.976Z,15.98
2022-10-19T17:58:45.600Z,15.91
2022-10-19T18:01:12.441Z,15.78
2022-10-19T18:03:39.741Z,15.84
2022-10-19T18:06:10.710Z,15.79
2022-10-19T18:08:40.036Z,15.75
2022-10-19T18:11:09.366Z,15.66
2022-10-19T18:16:16.131Z,15.78
2022-10-19T18:18:44.572Z,15.75
2022-10-19T18:21:12.985Z,15.83
2022-10-19T18:23:40.198Z,15.40
2022-10-19T18:26:15.276Z,15.28
2022-10-19T18:28:42.669Z,15.37
2022-10-19T18:31:12.126Z,15.31
2022-10-19T18:33:39.041Z,15.00
2022-10-19T18:36:07.664Z,14.86
2022-10-19T18:38:34.988Z,14.74
2022-10-19T18:41:09.663Z,14.83
2022-10-19T18:43:36.542Z,15.06
2022-10-19T18:46:03.227Z,15.33
2022-10-19T18:48:30.547Z,15.37
2022-10-19T18:50:57.754Z,15.41
2022-10-19T18:53:24.499Z,15.43
2022-10-19T18:56:01.540Z,15.35
2022-10-19T18:58:30.775Z,15.37
2022-10-19T19:01:05.819Z,15.36
2022-10-19T19:03:33.111Z,15.19
2022-10-19T19:06:07.538Z,15.33
2022-10-19T19:08:34.135Z,15.45
2022-10-19T19:11:15.883Z,15.61
2022-10-19T19:13:50.653Z,15.65
2022-10-19T19:16:17.545Z,15.65
2022-10-19T19:18:44.389Z,15.62
2022-10-19T19:21:19.509Z,15.37
2022-10-19T19:23:49.457Z,15.35
2022-10-19T19:26:16.161Z,15.39
2022-10-19T19:28:44.335Z,15.32
2022-10-19T19:31:13.271Z,15.26
2022-10-19T19:33:40.188Z,15.30
2022-10-19T19:36:15.053Z,15.21
2022-10-19T19:38:43.850Z,15.27
2022-10-19T19:41:16.342Z,15.15
2022-10-19T19:43:43.872Z,15.07
2022-10-19T19:46:18.789Z,15.06
2022-10-19T19:48:47.458Z,15.19
2022-10-19T19:51:19.560Z,14.82
2022-10-19T19:53:47.277Z,15.09
2022-10-19T19:56:15.735Z,15.18
2022-10-19T19:58:43.034Z,15.18
2022-10-19T20:01:12.349Z,15.07
2022-10-19T20:03:40.555Z,14.96
2022-10-19T20:06:09.279Z,14.99
2022-10-19T20:08:38.870Z,14.83
2022-10-19T20:11:07.744Z,14.95
2022-10-19T20:13:34.770Z,14.98
2022-10-19T20:16:10.488Z,15.05
2022-10-19T20:18:37.268Z,14.86
2022-10-19T20:21:04.994Z,14.68
2022-10-19T20:23:31.674Z,14.59
2022-10-19T20:25:58.369Z,14.47
2022-10-19T20:28:25.642Z,14.65
2022-10-19T20:31:06.383Z,14.77
2022-10-19T20:33:34.238Z,14.86
2022-10-19T20:36:09.111Z,14.78
2022-10-19T20:38:37.008Z,14.97
2022-10-19T20:41:07.776Z,14.82
2022-10-19T20:43:35.957Z,14.70
2022-10-19T20:46:06.612Z,14.50
2022-10-19T20:48:33.310Z,14.42
2022-10-19T20:51:21.173Z,14.61
2022-10-19T20:53:50.549Z,14.79
2022-10-19T20:56:19.751Z,14.66
2022-10-19T20:58:46.431Z,14.51
2022-10-19T21:01:16.272Z,14.46
2022-10-19T21:03:47.894Z,14.50
2022-10-19T21:06:14.637Z,14.51
2022-10-19T21:08:42.146Z,14.28
2022-10-19T21:11:23.088Z,14.06
2022-10-19T21:13:53.780Z,14.07
2022-10-19T21:16:22.005Z,14.11
2022-10-19T21:18:49.506Z,14.27
2022-10-19T21:21:24.820Z,14.36
2022-10-19T21:23:55.031Z,14.22
2022-10-19T21:26:24.254Z,14.14
2022-10-19T21:28:51.131Z,14.07
2022-10-19T21:31:17.954Z,14.00
2022-10-19T21:33:44.668Z,13.74
2022-10-19T21:36:11.985Z,13.86
2022-10-19T21:38:38.822Z,14.01
2022-10-19T21:41:07.460Z,13.97
2022-10-19T21:43:34.555Z,14.05
2022-10-19T21:46:02.810Z,14.22
2022-10-19T21:48:29.780Z,14.22
2022-10-19T21:50:56.216Z,14.30
2022-10-19T21:53:23.286Z,14.39
2022-10-19T21:55:51.164Z,14.60
2022-10-19T21:58:17.764Z,14.80
2022-10-19T22:00:44.210Z,14.76
2022-10-19T22:03:11.491Z,14.60
2022-10-19T22:05:38.245Z,14.61
2022-10-19T22:08:05.074Z,14.70
2022-10-19T22:10:31.608Z,14.74
2022-10-19T22:12:58.259Z,14.61
2022-10-19T22:15:24.923Z,14.64
2022-10-19T22:17:51.592Z,14.56
2022-10-19T22:20:18.141Z,14.73
2022-10-19T22:22:44.596Z,14.57
2022-10-19T22:25:11.040Z,14.65
2022-10-19T22:27:37.664Z,14.55
2022-10-19T22:30:04.822Z,14.31
2022-10-19T22:32:31.319Z,14.35
2022-10-19T22:34:57.851Z,14.35
2022-10-19T22:37:24.458Z,14.38
2022-10-19T22:39:50.954Z,14.59
2022-10-19T22:42:17.401Z,14.76
2022-10-19T22:44:43.843Z,15.02
2022-10-19T22:47:10.425Z,15.18
2022-10-19T22:49:36.876Z,15.30
2022-10-19T22:52:03.479Z,15.41
2022-10-19T22:54:29.962Z,15.47
2022-10-19T22:56:56.905Z,15.45
2022-10-19T22:59:23.652Z,15.60
2022-10-19T23:01:50.191Z,15.71
2022-10-19T23:04:19.800Z,15.75
2022-10-19T23:06:46.246Z,15.79
2022-10-19T23:09:12.711Z,15.84
2022-10-19T23:11:39.176Z,15.69
2022-10-19T23:14:06.449Z,15.72
2022-10-19T23:16:33.030Z,15.85
2022-10-19T23:18:59.465Z,15.62
2022-10-19T23:21:25.989Z,15.32
2022-10-19T23:23:52.475Z,15.36
2022-10-19T23:26:20.125Z,15.29
2022-10-19T23:28:48.573Z,15.16
2022-10-19T23:31:17.541Z,15.23
2022-10-19T23:33:44.368Z,14.97
2022-10-19T23:36:22.509Z,15.10
2022-10-19T23:38:50.173Z,15.07
2022-10-19T23:41:17.521Z,15.10
2022-10-19T23:43:44.052Z,15.14
2022-10-19T23:46:10.666Z,15.29
2022-10-19T23:48:37.516Z,15.38
2022-10-19T23:51:13.017Z,15.49
2022-10-19T23:53:41.672Z,15.63
2022-10-19T23:56:12.928Z,15.44
2022-10-19T23:58:39.426Z,15.26
